Latest METARs, TAFs and NOTAMs for SBEG


---------------------------------------------------------------------------
	(OBSERVATIONS)
SBEG 191200Z 27003KT 5000 BR BKN005 23/23 Q1017=
SBEG 191148Z 30003KT 4000 1500NE BR SCT002 BKN004 23/23 Q1017=
SBEG 191130Z 36003KT 1500 BR BKN002 23/22 Q1016=
SBEG 191120Z 00000KT 0900 FG BKN002 22/22 Q1016=
SBEG 191111Z 15003KT 0500 FG BKN002 22/22 Q1016=
SBEG 191100Z 35002KT 0300 FG BKN002 OVC004 22/22 Q1016=
SBEG 191027Z 00000KT 0300 FG VV002 22/22 Q1016=
SBEG 191000Z 32002KT 4000 1000W BCFG SCT002 SCT008 22/22 Q1015=
---------------------------------------------------------------------------
	(TERMINAL AREA FORECAST)
SBEG 191000Z 1912/2012 32005KT 9999 SCT010 TX31/1917Z TN24/2007Z
    PROB30 1912/1914 3000 BR BKN005
    BECMG 1914/1916 08010KT SCT015
    BECMG 1916/1 918 SCT020 FEW025TCU
    PROB30 TEMPO 1919/1922 5000 TSRA BKN018 FEW025CB BE CMG
    1922/1924 10003KT FEW020
    BECMG 2001/2003 00000KT CAVOK
    RMK PCQ=
---------------------------------------------------------------------------
	(NOTAMS)


SBEG M0057/04 INSTR APCH CHART CHARLIE 2 (RWY 10 ILS/DME) IN
    THE BOX FULL ILS CHANGE FROM VIS ALS TO VIS/RVR 800M/550M.
    03 APR 00:00 2004 UNTIL PERM. CREATED: 27 MAR 09:38 2004

SBEG M0080/04 INSTR APCH CHART (GPS) RWY 10 DATED MAY 15 2004
    (SEE AIP SUP A039 DATED APR 15 2004) INSTALLED. 28 APR 01:28
    2004 UNTIL PERM. CREATED: 28 APR 03:08 2004

SBEG O0308/18 OBST (TOWER) LGTD COORD 030312.20S/0600448.80W
    ELEV 426,5FT ERECTE D REF: AIP AD 2.10. 07 JUN 15:10 2018
    UNTIL PERM. CREATED: 07 JUN 15:10 2018

SBEG O0317/18 OBST (TOWER) LGTD ERECTED: 1 - COORD 030434.80S/0600444.40W
    ELEV 574,14FT 2 - COORD 030353.00S/0600237.00W ELEV 413,38FT.
    18 JUN 00:00 2018 UNTIL 14 SEP 23:59 2018. CREATED: 11 JUN
    17:31 2018

SBEG O0464/17 RNAV SID SOVKO 1A RWY 28 CORRECT SBR-715 (BALBINA
    WHISKY ALTA) UPPE R VERTICAL BDRY FROM FL470 TO FL350 REF:
    AIP MAP. 12 JUL 17:57 2017 UNTIL PERM. CREATED: 12 JUL 22:35
    2017

SBEG O0515/17 TWR - D-CL (DATA LINK CLRD) AUTH TFC VIA DATA LINK
    ACT H24 REF: AIP AD 2.24 ADC, PDC, VAC, SID(ALL), IAC(ALL.
    31 JUL 01:48 2017 UNTIL PERM. CREATED: 31 JUL 01:49 2017

SBEG O0579/17 RWY 10/28 IDENT CHANGED TO 11/29 REF: AIP AD 2.24.
    14 AUG 20:14 2017 UNTIL PERM. CREATED: 14 AUG 20:29 2017

SBEG O0589/17 STAR RNAV IRUMO 1A RWY 11 AND STAR RNAV MOLDO 1A
    RWY 11 CORRECT: ALT TO PASS ARSOS WAYPOINT 4000FT OR ABOVE.
    17 AUG 00:00 2017 UNTIL PERM. CREATED: 16 AUG 21:00 2017

SBEG O0596/17 ATIS D-ATIS (DATA LINK ATIS) AVBL INFO VIA DATA
    LINK H24 REF: AIP AD 2.24 PDC, VAC, SID(ALL), IAC(ALL. 18
    AUG 14:40 2017 UNTIL PERM. CREATED: 18 AUG 14:43 2017

SBEG O0733/17 SID NIRMU 1B RWY 29 AND SID OGSOT 1C RWY 11 WITHDRAWAL
    REF: AIP AD 2.24. 18 OCT 20:30 2017 UNTIL PERM. CREATED:
    18 OCT 20:32 2017

SBEG O0831/16 MANAUS APP FREQ 120.90MHZ CNL REF: AIP AD 2.24.
    10 NOV 16:05 2016 UNTIL PERM. CREATED: 10 NOV 16:08 2016

SBEG V0053/18 [US DOD PROCEDURAL NOTAM] STANDARD INSTRUMENT DEPARTURE
    (SID) LIMITED EPKIN 1B-ILKUP 1B DEP ILKUP 1B NOT AVAILABLE.
    31 MAY 00:00 2018 UNTIL 31 AUG 23:59 2018. CREATED: 29 MAY
    14:59 2018

---------------------------------------------------------------------------